Cranberry Lake, New York
Current Conditions -  °F | °C
As of 3:51 PM on Saturday 20 Dec 2014 (Local Time) from KSLK Reporting Station
Clear Clear  
Wind Chill: 23°   Ceiling: Unl
Heat Index: 23°   Visibility: 10mi
Dew Point: 20°   Wind: 0mph
Humidity: 88%   Direction: NA
Pressure: 30.17"   Gusts: NA
Location:  44.22°N, 74.84°W
Report Text: KSLK 202051Z AUTO 00000KT 10SM CLR M05/M07 A3017 RMK AO2 SLP247 T10501067 53000 $
Loading
Personal Weather Stations






























Interactive Weather Map New forecast layout! Learn more

10-Day Weather Forecast

Advertisements
Track Severe Weather on mobile